Time;durP1;ratioP1;P1;durP2;ratioP2;P2;SDS_P1;SDS_P2;PMS_P1;PMS_P2;Temp;Humidity;BMP_temperature;BMP_pressure;BME280_temperature;BME280_humidity;BME280_pressure;Samples;Min_cycle;Max_cycle;Signal;HPM_P1;HPM_P2
2024/04/09 00:00:46;;;;;;;17.87;5.70;;;20.40;50.10;;;;;;5275201;27;20349;-78
2024/04/09 00:03:13;;;;;;;20.43;5.07;;;20.50;48.50;;;;;;5274187;26;20295;-78
2024/04/09 00:05:39;;;;;;;27.50;6.30;;;20.50;49.70;;;;;;5278385;27;20329;-77
2024/04/09 00:08:10;;;;;;;20.80;5.30;;;20.40;51.60;;;;;;5281553;27;20479;-76
2024/04/09 00:10:39;;;;;;;24.50;4.80;;;20.40;49.80;;;;;;5282672;27;20244;-77
2024/04/09 00:13:06;;;;;;;18.70;5.03;;;20.50;50.60;;;;;;5277274;27;20549;-77
2024/04/09 00:15:33;;;;;;;20.90;4.87;;;20.30;52.40;;;;;;5279302;27;20477;-77
2024/04/09 00:18:12;;;;;;;28.10;5.30;;;20.20;53.00;;;;;;5278383;27;20523;-76
2024/04/09 00:20:40;;;;;;;16.73;5.40;;;20.10;52.10;;;;;;5282562;27;20672;-77
2024/04/09 00:23:06;;;;;;;23.90;5.33;;;20.10;50.70;;;;;;5275745;27;20530;-77
2024/04/09 00:25:31;;;;;;;30.70;4.90;;;20.20;49.70;;;;;;5283117;27;20528;-77
2024/04/09 00:27:59;;;;;;;17.80;5.40;;;20.20;48.90;;;;;;5280425;27;20899;-76
2024/04/09 00:30:27;;;;;;;26.10;5.30;;;20.00;50.50;;;;;;5279668;27;20630;-77
2024/04/09 00:32:53;;;;;;;21.50;5.57;;;20.00;48.50;;;;;;5272473;27;20526;-78
2024/04/09 00:35:21;;;;;;;25.83;4.90;;;20.20;48.50;;;;;;5280305;27;20470;-79
2024/04/09 00:37:51;;;;;;;18.90;4.27;;;20.00;48.50;;;;;;5278053;27;20235;-77
2024/04/09 00:40:20;;;;;;;23.73;5.23;;;20.00;48.30;;;;;;5283802;27;20474;-77
2024/04/09 00:42:49;;;;;;;21.00;4.60;;;20.00;47.40;;;;;;5271606;27;20553;-77
2024/04/09 00:45:17;;;;;;;18.70;5.13;;;20.10;47.50;;;;;;5278516;27;20477;-77
2024/04/09 00:47:46;;;;;;;16.57;5.20;;;20.00;48.10;;;;;;5281279;26;20457;-78
2024/04/09 00:50:12;;;;;;;23.73;5.30;;;19.90;47.50;;;;;;5279082;27;20534;-76
2024/04/09 00:52:42;;;;;;;18.43;4.77;;;19.90;47.30;;;;;;5276890;27;20533;-77
2024/04/09 00:55:08;;;;;;;16.03;4.60;;;19.80;47.40;;;;;;5282687;27;20471;-77
2024/04/09 00:57:35;;;;;;;15.37;5.07;;;19.90;46.90;;;;;;5280909;27;20665;-77
2024/04/09 01:00:05;;;;;;;19.53;5.33;;;19.90;46.20;;;;;;5274041;27;20471;-76
2024/04/09 01:02:32;;;;;;;16.23;4.60;;;20.10;46.10;;;;;;5276218;27;20550;-79
2024/04/09 01:04:58;;;;;;;10.50;4.27;;;20.00;47.40;;;;;;5274969;27;20534;-76
2024/04/09 01:07:24;;;;;;;19.30;4.83;;;20.00;48.50;;;;;;5274153;27;20470;-76
2024/04/09 01:09:50;;;;;;;20.97;4.93;;;20.00;48.50;;;;;;5271484;27;20482;-77
2024/04/09 01:12:15;;;;;;;13.03;3.70;;;19.90;47.80;;;;;;5268135;27;20531;-75
2024/04/09 01:14:41;;;;;;;20.93;4.60;;;19.90;45.30;;;;;;5277299;27;20239;-76
2024/04/09 01:17:07;;;;;;;12.53;4.00;;;19.90;47.80;;;;;;5274968;27;20776;-76
2024/04/09 01:19:33;;;;;;;12.07;4.23;;;19.70;48.30;;;;;;5273845;27;20314;-78
2024/04/09 01:21:59;;;;;;;14.50;3.60;;;19.70;48.20;;;;;;5269435;26;20544;-77
2024/04/09 01:24:25;;;;;;;20.17;5.10;;;19.70;48.60;;;;;;5277785;27;20281;-76
2024/04/09 01:26:54;;;;;;;21.03;4.17;;;19.70;48.30;;;;;;5274387;27;20546;-77
2024/04/09 01:29:21;;;;;;;12.93;4.10;;;19.70;48.20;;;;;;5273961;27;20732;-79
2024/04/09 01:31:48;;;;;;;17.20;5.20;;;19.80;47.70;;;;;;5273941;27;20483;-77
2024/04/09 01:34:15;;;;;;;17.60;4.87;;;19.70;47.30;;;;;;5277425;27;20520;-76
2024/04/09 01:36:41;;;;;;;13.80;3.90;;;19.90;47.70;;;;;;5268575;27;20524;-77
2024/04/09 01:39:08;;;;;;;16.37;5.40;;;19.90;47.40;;;;;;5274743;26;21030;-76
2024/04/09 01:41:38;;;;;;;17.47;4.30;;;19.90;47.80;;;;;;5265317;27;20479;-77
2024/04/09 01:44:04;;;;;;;23.63;4.80;;;19.90;48.50;;;;;;5302848;26;20477;-76
2024/04/09 01:46:29;;;;;;;20.77;4.60;;;19.90;48.70;;;;;;5272638;27;20481;-76
2024/04/09 01:48:55;;;;;;;13.93;4.70;;;19.90;48.20;;;;;;5269548;26;20645;-78
2024/04/09 01:51:20;;;;;;;19.30;4.33;;;19.70;48.50;;;;;;5270204;27;20599;-78
2024/04/09 01:53:48;;;;;;;12.73;3.90;;;19.60;49.00;;;;;;5274769;27;20285;-78
2024/04/09 01:56:15;;;;;;;14.07;4.17;;;19.60;49.10;;;;;;5299756;26;20367;-76
2024/04/09 01:58:41;;;;;;;18.33;5.00;;;19.60;49.50;;;;;;5272914;27;20535;-76
2024/04/09 02:01:09;;;;;;;20.00;4.23;;;19.70;48.10;;;;;;5269206;27;20503;-79
2024/04/09 02:03:36;;;;;;;17.47;4.23;;;19.70;48.10;;;;;;5269291;27;20653;-77
2024/04/09 02:06:02;;;;;;;13.83;4.50;;;19.70;47.80;;;;;;5272019;27;20525;-78
2024/04/09 02:08:28;;;;;;;17.37;3.97;;;19.60;48.50;;;;;;5273941;27;20486;-79
2024/04/09 02:10:54;;;;;;;13.23;3.90;;;19.50;48.60;;;;;;5309155;26;20562;-77
2024/04/09 02:13:19;;;;;;;19.53;4.50;;;19.50;48.30;;;;;;5284136;27;20244;-77
2024/04/09 02:15:45;;;;;;;10.47;3.50;;;19.50;48.10;;;;;;5277239;26;20479;-76
2024/04/09 02:18:11;;;;;;;17.27;4.03;;;19.50;48.20;;;;;;5285356;27;20248;-80
2024/04/09 02:20:38;;;;;;;15.27;5.10;;;19.50;47.80;;;;;;5290450;27;20259;-77
2024/04/09 02:23:04;;;;;;;12.03;4.07;;;19.50;48.60;;;;;;5291160;27;20263;-78
2024/04/09 02:25:30;;;;;;;16.73;4.33;;;19.60;48.90;;;;;;5281185;26;20571;-78
2024/04/09 02:27:56;;;;;;;14.93;4.00;;;19.60;49.40;;;;;;5284148;27;20243;-77
2024/04/09 02:30:21;;;;;;;13.97;3.53;;;19.60;50.20;;;;;;5275743;27;20475;-77
2024/04/09 02:32:47;;;;;;;22.90;4.90;;;19.50;50.20;;;;;;5270171;27;20294;-77
2024/04/09 02:35:13;;;;;;;12.77;3.90;;;19.40;49.30;;;;;;5276886;27;20307;-76
2024/04/09 02:37:41;;;;;;;13.50;4.20;;;19.30;48.30;;;;;;5273948;27;20246;-77
2024/04/09 02:40:14;;;;;;;15.70;4.30;;;19.40;47.80;;;;;;5276202;27;20816;-76
2024/04/09 02:42:42;;;;;;;14.80;4.50;;;19.40;47.70;;;;;;5272009;27;20552;-76
2024/04/09 02:45:09;;;;;;;12.50;4.77;;;19.50;47.70;;;;;;5272507;26;20494;-77
2024/04/09 02:47:35;;;;;;;14.23;5.20;;;19.40;49.00;;;;;;5276908;27;20530;-76
2024/04/09 02:50:01;;;;;;;13.90;5.20;;;19.40;49.40;;;;;;5267114;27;20486;-78
2024/04/09 02:52:27;;;;;;;16.80;5.60;;;19.40;50.20;;;;;;5273455;27;20362;-77
2024/04/09 02:54:52;;;;;;;14.00;4.60;;;19.30;50.20;;;;;;5277805;27;20803;-78
2024/04/09 02:57:18;;;;;;;20.47;6.30;;;19.30;49.90;;;;;;5279783;27;20238;-78
2024/04/09 02:59:43;;;;;;;23.13;4.63;;;19.30;49.80;;;;;;5278779;27;20279;-79
2024/04/09 03:02:09;;;;;;;17.27;5.40;;;19.30;49.40;;;;;;5267728;27;20259;-76
2024/04/09 03:04:35;;;;;;;14.30;5.50;;;19.30;50.90;;;;;;5278080;27;20243;-78
2024/04/09 03:07:01;;;;;;;19.63;4.80;;;19.20;50.50;;;;;;5281479;27;20818;-77
2024/04/09 03:09:27;;;;;;;24.77;5.43;;;19.20;49.80;;;;;;5279198;26;20469;-79
2024/04/09 03:11:53;;;;;;;22.90;4.83;;;19.20;49.90;;;;;;5272772;27;20562;-79
2024/04/09 03:14:18;;;;;;;20.30;5.20;;;19.10;50.90;;;;;;5277630;27;21354;-78
2024/04/09 03:16:44;;;;;;;23.70;5.97;;;19.00;51.80;;;;;;5272437;26;20282;-77
2024/04/09 03:19:10;;;;;;;15.93;5.30;;;19.00;52.20;;;;;;5276286;27;20280;-76
2024/04/09 03:21:36;;;;;;;22.50;5.50;;;18.90;52.80;;;;;;5272232;27;20358;-78
2024/04/09 03:24:02;;;;;;;25.23;5.07;;;18.80;52.80;;;;;;5273910;27;20525;-76
2024/04/09 03:26:27;;;;;;;22.03;5.80;;;19.10;48.90;;;;;;5275500;27;20441;-77
2024/04/09 03:28:53;;;;;;;25.83;5.50;;;19.30;50.10;;;;;;5270952;27;20917;-79
2024/04/09 03:31:18;;;;;;;21.47;5.63;;;19.30;50.90;;;;;;5272831;27;21003;-79
2024/04/09 03:33:44;;;;;;;21.33;5.67;;;19.30;50.90;;;;;;5277502;26;20257;-77
2024/04/09 03:36:10;;;;;;;22.47;5.90;;;19.40;51.00;;;;;;5277232;27;20296;-78
2024/04/09 03:38:35;;;;;;;18.77;6.00;;;19.40;50.90;;;;;;5283186;27;20258;-76
2024/04/09 03:41:03;;;;;;;15.13;5.87;;;19.50;51.20;;;;;;5280156;27;20236;-78
2024/04/09 03:43:29;;;;;;;15.53;5.20;;;19.50;51.30;;;;;;5283489;27;20285;-77
2024/04/09 03:46:06;;;;;;;27.10;6.57;;;19.30;51.20;;;;;;5279494;27;20539;-76
2024/04/09 03:48:35;;;;;;;20.70;6.07;;;19.30;51.30;;;;;;5274809;27;20243;-77
2024/04/09 03:51:01;;;;;;;21.80;5.63;;;19.30;51.30;;;;;;5275581;27;20485;-76
2024/04/09 03:53:27;;;;;;;26.50;5.90;;;19.20;52.20;;;;;;5275461;27;20640;-77
2024/04/09 03:55:57;;;;;;;20.77;5.93;;;19.20;52.50;;;;;;5278329;27;20245;-79
2024/04/09 03:58:23;;;;;;;24.10;6.50;;;19.20;52.80;;;;;;5276886;27;21037;-77
2024/04/09 04:01:00;;;;;;;25.73;5.80;;;19.20;52.60;;;;;;5271483;26;20537;-77
2024/04/09 04:03:27;;;;;;;25.60;6.10;;;19.20;52.40;;;;;;5273246;27;20524;-77
2024/04/09 04:05:54;;;;;;;23.03;6.57;;;19.20;52.60;;;;;;5276748;26;20541;-78
2024/04/09 04:08:27;;;;;;;25.83;5.63;;;19.20;52.60;;;;;;5271098;27;20487;-77
2024/04/09 04:10:54;;;;;;;24.43;6.10;;;19.10;52.80;;;;;;5278035;26;20477;-77
2024/04/09 04:13:22;;;;;;;16.07;5.43;;;19.00;53.00;;;;;;5279302;27;21299;-76
2024/04/09 04:15:59;;;;;;;28.67;6.10;;;19.10;53.30;;;;;;5275659;26;20465;-79
2024/04/09 04:18:26;;;;;;;17.20;5.47;;;19.10;53.70;;;;;;5278545;27;20538;-78
2024/04/09 04:20:53;;;;;;;20.17;5.53;;;19.10;53.80;;;;;;5280016;26;20482;-77
2024/04/09 04:23:19;;;;;;;19.27;5.00;;;18.90;54.50;;;;;;5277070;27;20533;-77
2024/04/09 04:26:06;;;;;;;19.40;5.30;;;18.80;54.50;;;;;;5272541;27;20473;-78
2024/04/09 04:28:36;;;;;;;19.87;5.47;;;18.70;54.90;;;;;;5277501;27;20235;-76
2024/04/09 04:31:08;;;;;;;25.27;6.03;;;18.70;55.20;;;;;;5269384;26;20591;-78
2024/04/09 04:33:34;;;;;;;24.33;6.63;;;18.60;55.60;;;;;;5271288;27;20472;-78
2024/04/09 04:36:00;;;;;;;22.30;5.53;;;18.50;56.00;;;;;;5277093;27;20574;-77
2024/04/09 04:38:26;;;;;;;25.53;5.80;;;18.40;56.20;;;;;;5282054;27;20483;-77
2024/04/09 04:40:52;;;;;;;20.40;5.00;;;18.40;56.60;;;;;;5277757;27;20272;-75
2024/04/09 04:43:18;;;;;;;24.67;6.60;;;18.40;56.60;;;;;;5275189;27;20245;-77
2024/04/09 04:45:44;;;;;;;24.57;5.70;;;18.30;57.00;;;;;;5277919;27;21315;-77
2024/04/09 04:48:11;;;;;;;21.07;6.37;;;18.30;57.20;;;;;;5276613;27;20536;-76
2024/04/09 04:50:37;;;;;;;24.30;6.17;;;18.30;57.60;;;;;;5279209;27;20540;-78
2024/04/09 04:53:03;;;;;;;31.40;6.30;;;18.20;57.60;;;;;;5274902;27;20518;-77
2024/04/09 04:55:29;;;;;;;26.97;6.73;;;18.30;57.80;;;;;;5274592;27;20284;-77
2024/04/09 04:57:55;;;;;;;20.53;6.13;;;18.40;56.80;;;;;;5275367;27;20492;-79
2024/04/09 05:00:21;;;;;;;21.50;6.40;;;18.40;57.20;;;;;;5266399;27;20522;-77
2024/04/09 05:02:48;;;;;;;22.60;6.43;;;18.30;57.70;;;;;;5272567;26;20249;-76
2024/04/09 05:05:14;;;;;;;19.70;5.60;;;18.40;57.30;;;;;;5275166;27;20461;-78
2024/04/09 05:07:39;;;;;;;23.03;6.43;;;18.40;56.90;;;;;;5273340;27;20588;-79
2024/04/09 05:10:12;;;;;;;30.57;6.23;;;18.50;57.00;;;;;;5274940;27;20671;-78
2024/04/09 05:12:44;;;;;;;24.13;6.10;;;18.50;57.00;;;;;;5269984;27;20488;-79
2024/04/09 05:15:09;;;;;;;16.50;5.30;;;18.70;57.00;;;;;;5270666;26;20479;-78
2024/04/09 05:17:35;;;;;;;21.40;4.50;;;18.80;57.20;;;;;;5276894;27;20529;-78
2024/04/09 05:20:09;;;;;;;13.17;3.97;;;18.90;57.30;;;;;;5274270;27;20243;-77
2024/04/09 05:22:40;;;;;;;18.10;4.00;;;18.90;57.80;;;;;;5265261;26;20597;-77
2024/04/09 05:25:06;;;;;;;10.80;3.83;;;19.00;58.00;;;;;;5275108;27;20527;-77
2024/04/09 05:27:33;;;;;;;12.47;4.03;;;18.90;58.20;;;;;;5276079;27;20577;-78
2024/04/09 05:29:58;;;;;;;11.20;3.90;;;18.90;58.40;;;;;;5279927;26;20464;-77
2024/04/09 05:32:25;;;;;;;9.80;3.30;;;18.90;58.70;;;;;;5271758;27;20855;-77
2024/04/09 05:34:52;;;;;;;17.47;3.70;;;18.90;58.90;;;;;;5273883;27;20316;-80
2024/04/09 05:37:17;;;;;;;15.97;3.90;;;19.00;58.90;;;;;;5273822;27;20476;-77
2024/04/09 05:39:45;;;;;;;18.53;3.90;;;19.00;59.20;;;;;;5275120;26;20477;-76
2024/04/09 05:42:10;;;;;;;17.63;3.17;;;18.90;59.60;;;;;;5266387;26;20343;-77
2024/04/09 05:44:36;;;;;;;14.80;3.53;;;18.80;59.90;;;;;;5273578;26;20942;-76
2024/04/09 05:47:02;;;;;;;9.80;2.80;;;18.80;60.00;;;;;;5273366;27;20994;-76
2024/04/09 05:49:27;;;;;;;18.93;3.20;;;18.90;60.10;;;;;;5269812;26;20238;-76
2024/04/09 05:51:53;;;;;;;10.90;2.97;;;18.90;60.00;;;;;;5273982;27;20298;-76
2024/04/09 05:54:19;;;;;;;7.93;3.33;;;18.90;60.30;;;;;;5269781;26;20341;-77
2024/04/09 05:56:48;;;;;;;11.00;3.17;;;18.80;60.70;;;;;;5272592;26;20242;-75
2024/04/09 05:59:15;;;;;;;13.90;2.93;;;18.80;60.60;;;;;;5273286;27;20821;-76
2024/04/09 06:01:41;;;;;;;12.63;2.87;;;18.70;61.20;;;;;;5270881;27;21360;-77
2024/04/09 06:04:06;;;;;;;12.97;2.80;;;18.50;61.70;;;;;;5272039;27;20237;-77
2024/04/09 06:06:32;;;;;;;12.67;3.07;;;18.50;62.00;;;;;;5272807;27;20265;-77
2024/04/09 06:08:57;;;;;;;16.73;3.10;;;18.50;61.90;;;;;;5276048;27;20355;-77
2024/04/09 06:11:23;;;;;;;7.33;2.60;;;18.50;62.30;;;;;;5270609;27;20251;-76
2024/04/09 06:13:53;;;;;;;10.37;2.33;;;18.50;62.50;;;;;;5277951;26;20241;-78
2024/04/09 06:16:19;;;;;;;6.37;2.10;;;18.40;62.80;;;;;;5277963;27;20533;-76
2024/04/09 06:18:45;;;;;;;7.67;2.27;;;18.40;62.90;;;;;;5277618;27;21017;-77
2024/04/09 06:21:10;;;;;;;8.60;2.20;;;18.50;63.10;;;;;;5273075;27;20560;-78
2024/04/09 06:23:36;;;;;;;11.33;2.40;;;18.30;63.20;;;;;;5274150;27;21070;-77
2024/04/09 06:26:02;;;;;;;11.40;2.60;;;18.00;63.80;;;;;;5273015;27;20251;-76
2024/04/09 06:28:28;;;;;;;7.90;2.67;;;18.10;64.10;;;;;;5278007;27;20812;-77
2024/04/09 06:30:54;;;;;;;7.33;2.20;;;18.10;64.10;;;;;;5273726;26;20469;-78
2024/04/09 06:33:20;;;;;;;11.50;3.00;;;18.10;64.10;;;;;;5269418;27;20222;-76
2024/04/09 06:35:45;;;;;;;14.07;3.43;;;18.10;64.10;;;;;;5271297;26;20244;-77
2024/04/09 06:38:11;;;;;;;5.60;2.50;;;18.10;64.40;;;;;;5274276;27;20469;-76
2024/04/09 06:40:37;;;;;;;9.50;2.43;;;18.10;64.50;;;;;;5270878;27;20278;-77
2024/04/09 06:43:03;;;;;;;9.40;2.33;;;18.00;64.70;;;;;;5270258;26;20649;-76
2024/04/09 06:45:29;;;;;;;11.27;3.13;;;18.00;64.80;;;;;;5274597;27;20525;-75
2024/04/09 06:47:55;;;;;;;10.30;3.10;;;17.80;65.10;;;;;;5296914;26;20652;-78
2024/04/09 06:50:20;;;;;;;6.30;2.20;;;17.70;65.40;;;;;;5279933;26;20239;-78
2024/04/09 06:52:46;;;;;;;6.50;2.37;;;17.70;65.60;;;;;;5266499;26;20255;-78
2024/04/09 06:55:12;;;;;;;8.43;2.13;;;17.80;65.60;;;;;;5273258;27;20313;-77
2024/04/09 06:57:38;;;;;;;7.53;2.67;;;17.70;65.60;;;;;;5301801;26;20250;-77
2024/04/09 07:00:06;;;;;;;14.60;3.20;;;17.80;65.70;;;;;;5277245;26;20283;-77
2024/04/09 07:02:33;;;;;;;8.50;2.53;;;17.80;65.80;;;;;;5278951;27;20485;-77
2024/04/09 07:04:59;;;;;;;8.93;2.60;;;17.80;65.80;;;;;;5275971;27;20534;-77
2024/04/09 07:07:25;;;;;;;9.00;3.00;;;17.60;66.00;;;;;;5278659;26;20485;-78
2024/04/09 07:09:50;;;;;;;8.50;2.40;;;17.60;66.10;;;;;;5283246;27;20594;-77
2024/04/09 07:12:16;;;;;;;5.97;2.40;;;17.70;66.00;;;;;;5269825;27;20256;-77
2024/04/09 07:14:41;;;;;;;9.60;2.70;;;17.70;66.10;;;;;;5276523;27;20250;-77
2024/04/09 07:17:08;;;;;;;10.83;2.03;;;17.70;66.10;;;;;;5278311;27;20286;-77
2024/04/09 07:19:33;;;;;;;10.00;2.70;;;17.90;66.00;;;;;;5275818;27;20249;-78
2024/04/09 07:21:59;;;;;;;8.23;2.27;;;17.90;65.80;;;;;;5279850;27;20530;-77
2024/04/09 07:24:25;;;;;;;9.63;2.73;;;17.90;66.10;;;;;;5281462;27;20247;-77
2024/04/09 07:26:50;;;;;;;8.63;2.60;;;17.90;66.10;;;;;;5277829;27;20254;-77
2024/04/09 07:29:18;;;;;;;12.60;2.90;;;18.00;65.70;;;;;;5269278;27;20283;-78
2024/04/09 07:31:44;;;;;;;13.60;2.60;;;18.00;66.00;;;;;;5268163;27;20317;-76
2024/04/09 07:34:09;;;;;;;14.20;2.30;;;18.00;65.80;;;;;;5278179;27;20488;-76
2024/04/09 07:36:35;;;;;;;13.90;2.90;;;18.00;65.80;;;;;;5278413;26;20238;-77
2024/04/09 07:39:01;;;;;;;13.23;3.30;;;18.00;66.00;;;;;;5272663;27;20300;-77
2024/04/09 07:41:26;;;;;;;5.27;2.20;;;18.00;66.10;;;;;;5268393;26;20322;-77
2024/04/09 07:43:52;;;;;;;10.47;2.80;;;17.90;66.30;;;;;;5278992;26;20236;-78
2024/04/09 07:46:19;;;;;;;4.57;2.53;;;17.80;66.40;;;;;;5286288;27;20259;-76
2024/04/09 07:48:45;;;;;;;7.60;2.40;;;17.60;66.70;;;;;;5278818;27;20471;-77
2024/04/09 07:51:11;;;;;;;12.70;3.10;;;17.40;67.50;;;;;;5274057;27;20472;-77
2024/04/09 07:53:38;;;;;;;8.03;2.43;;;17.10;68.20;;;;;;5277021;27;20240;-75
2024/04/09 07:56:12;;;;;;;6.20;2.43;;;16.80;68.60;;;;;;5277943;27;20556;-77
2024/04/09 07:58:38;;;;;;;6.60;2.00;;;16.50;69.40;;;;;;5278447;27;21213;-76
2024/04/09 08:01:04;;;;;;;6.00;1.30;;;16.20;70.10;;;;;;5274536;27;20925;-79
2024/04/09 08:03:29;;;;;;;5.13;2.30;;;16.00;70.10;;;;;;5274681;27;20254;-77
2024/04/09 08:05:55;;;;;;;4.23;1.70;;;15.80;69.90;;;;;;5276269;27;20492;-77
2024/04/09 08:08:21;;;;;;;4.37;1.30;;;15.60;70.50;;;;;;5275620;26;21016;-80
2024/04/09 08:10:48;;;;;;;7.60;1.43;;;15.40;70.20;;;;;;5281436;27;20245;-77
2024/04/09 08:13:14;;;;;;;9.30;1.10;;;15.10;69.90;;;;;;5272312;27;20254;-76
2024/04/09 08:15:39;;;;;;;5.53;0.93;;;14.70;70.40;;;;;;5279083;26;20995;-77
2024/04/09 08:18:05;;;;;;;2.70;1.10;;;14.60;71.00;;;;;;5274391;27;20325;-78
2024/04/09 08:20:31;;;;;;;11.40;0.90;;;14.30;71.40;;;;;;5277207;27;20255;-76
2024/04/09 08:23:00;;;;;;;2.63;0.87;;;14.30;71.10;;;;;;5274384;27;20481;-77
2024/04/09 08:25:25;;;;;;;3.70;1.03;;;14.20;70.50;;;;;;5276380;27;20918;-77
2024/04/09 08:27:51;;;;;;;2.27;0.70;;;14.00;69.80;;;;;;5278217;27;20549;-77
2024/04/09 08:30:17;;;;;;;1.83;0.93;;;13.90;69.50;;;;;;5274584;27;20372;-79
2024/04/09 08:32:44;;;;;;;2.40;1.00;;;13.90;69.40;;;;;;5265622;27;20802;-77
2024/04/09 08:35:16;;;;;;;12.50;1.77;;;13.80;68.90;;;;;;5298965;26;20526;-78
2024/04/09 08:37:44;;;;;;;3.03;0.80;;;13.90;68.20;;;;;;5278703;27;21069;-79
2024/04/09 08:40:10;;;;;;;3.20;0.93;;;13.70;67.20;;;;;;5275998;27;20588;-79
2024/04/09 08:42:38;;;;;;;6.77;1.10;;;13.60;67.00;;;;;;5268694;27;20485;-77
2024/04/09 08:45:14;;;;;;;1.00;0.60;;;13.60;67.00;;;;;;5271526;27;20284;-77
2024/04/09 08:47:43;;;;;;;1.87;0.77;;;13.50;66.90;;;;;;5277323;27;20477;-78
2024/04/09 08:50:10;;;;;;;2.80;0.60;;;13.50;67.20;;;;;;5276876;27;20496;-77
2024/04/09 08:52:36;;;;;;;1.40;0.70;;;13.40;67.20;;;;;;5277604;27;20473;-77
2024/04/09 08:55:09;;;;;;;2.90;1.10;;;13.40;67.50;;;;;;5274392;27;20591;-77
2024/04/09 08:57:35;;;;;;;1.33;0.60;;;13.20;67.30;;;;;;5279510;27;20558;-76
2024/04/09 09:00:04;;;;;;;5.63;0.60;;;13.10;67.50;;;;;;5271844;27;20473;-76
2024/04/09 09:02:30;;;;;;;1.63;0.80;;;12.90;67.70;;;;;;5277291;26;20549;-76
2024/04/09 09:04:56;;;;;;;2.43;0.70;;;12.90;68.00;;;;;;5274570;27;20477;-78
2024/04/09 09:07:23;;;;;;;4.97;0.77;;;12.90;68.00;;;;;;5276079;26;20234;-77
2024/04/09 09:09:49;;;;;;;5.00;0.87;;;13.00;67.60;;;;;;5275920;27;20981;-76
2024/04/09 09:12:15;;;;;;;6.43;1.50;;;12.90;67.60;;;;;;5266233;27;20485;-76
2024/04/09 09:15:00;;;;;;;3.97;0.93;;;13.00;67.70;;;;;;5276440;27;20266;-76
2024/04/09 09:17:29;;;;;;;1.87;0.93;;;13.00;67.50;;;;;;5273856;27;20469;-77
2024/04/09 09:20:01;;;;;;;1.60;0.80;;;12.90;66.90;;;;;;5275937;26;20472;-77
2024/04/09 09:22:35;;;;;;;1.20;0.70;;;12.80;66.60;;;;;;5269388;27;22067;-77
2024/04/09 09:25:01;;;;;;;2.80;0.57;;;12.60;66.60;;;;;;5279454;26;20891;-76
2024/04/09 09:27:27;;;;;;;3.00;0.80;;;12.30;67.20;;;;;;5276630;27;20508;-76
2024/04/09 09:29:56;;;;;;;5.07;0.80;;;12.20;67.30;;;;;;5284342;27;20473;-77
2024/04/09 09:32:23;;;;;;;2.07;0.77;;;12.40;67.20;;;;;;5281982;27;20346;-77
2024/04/09 09:34:51;;;;;;;1.70;0.70;;;12.30;66.60;;;;;;5280876;26;20654;-75
2024/04/09 09:37:17;;;;;;;4.77;0.90;;;12.30;66.40;;;;;;5281883;27;20612;-76
2024/04/09 09:39:42;;;;;;;2.23;0.70;;;12.30;66.30;;;;;;5281179;27;21020;-76
2024/04/09 09:42:11;;;;;;;3.00;0.80;;;12.20;66.30;;;;;;5275065;27;20607;-77
2024/04/09 09:44:42;;;;;;;1.50;0.80;;;12.10;66.40;;;;;;5279074;27;20285;-77
2024/04/09 09:47:08;;;;;;;5.10;1.20;;;12.10;66.40;;;;;;5275519;27;20522;-76
2024/04/09 09:49:35;;;;;;;4.20;1.00;;;12.10;66.40;;;;;;5274808;27;20469;-78
2024/04/09 09:52:02;;;;;;;3.40;1.00;;;12.10;66.00;;;;;;5273370;27;20539;-77
2024/04/09 09:54:28;;;;;;;2.80;1.00;;;12.10;66.10;;;;;;5272977;27;21030;-78
2024/04/09 09:57:08;;;;;;;2.97;0.63;;;12.30;66.10;;;;;;5276964;27;20549;-77
2024/04/09 09:59:48;;;;;;;1.10;0.60;;;12.20;65.70;;;;;;5275582;27;21111;-77
2024/04/09 10:02:15;;;;;;;2.80;1.10;;;12.00;66.00;;;;;;5272056;27;20547;-76
2024/04/09 10:04:42;;;;;;;2.57;1.00;;;12.00;66.30;;;;;;5275221;27;20477;-78
2024/04/09 10:07:17;;;;;;;3.60;1.00;;;11.90;66.60;;;;;;5281527;27;20546;-77
2024/04/09 10:09:50;;;;;;;1.40;0.80;;;12.00;66.40;;;;;;5272475;27;20461;-77
2024/04/09 10:12:32;;;;;;;1.20;0.80;;;11.90;66.30;;;;;;5267562;26;20583;-77
2024/04/09 10:15:02;;;;;;;1.80;0.83;;;11.80;66.40;;;;;;5262152;27;20595;-76
2024/04/09 10:17:45;;;;;;;1.87;1.17;;;11.70;66.60;;;;;;5275522;27;20473;-78
2024/04/09 10:20:18;;;;;;;2.27;0.80;;;11.80;66.60;;;;;;5271907;27;20476;-78
2024/04/09 10:22:44;;;;;;;3.83;0.90;;;11.90;66.60;;;;;;5267189;27;20507;-77
2024/04/09 10:25:20;;;;;;;2.03;1.23;;;11.70;66.60;;;;;;5300187;26;20480;-75
2024/04/09 10:27:47;;;;;;;3.17;0.90;;;11.70;66.90;;;;;;5277885;27;21061;-77
2024/04/09 10:30:17;;;;;;;4.87;1.83;;;11.70;66.70;;;;;;5278875;26;20481;-77
2024/04/09 10:33:03;;;;;;;1.20;0.80;;;11.60;67.00;;;;;;5269117;27;20477;-78
2024/04/09 10:35:29;;;;;;;1.77;0.70;;;11.60;66.90;;;;;;5276273;27;20554;-77
2024/04/09 10:37:56;;;;;;;1.53;0.80;;;11.50;66.90;;;;;;5267775;27;20480;-79
2024/04/09 10:40:23;;;;;;;5.00;1.00;;;11.70;67.20;;;;;;5275551;27;20480;-77
2024/04/09 10:42:49;;;;;;;1.60;0.80;;;11.90;66.70;;;;;;5273656;26;21009;-77
2024/04/09 10:45:15;;;;;;;5.90;1.30;;;11.70;66.40;;;;;;5274913;26;20492;-78
2024/04/09 10:47:44;;;;;;;0.90;0.60;;;11.70;66.90;;;;;;5303562;26;20468;-76
2024/04/09 10:50:10;;;;;;;4.70;0.90;;;11.80;66.30;;;;;;5281592;27;20569;-77
2024/04/09 10:52:36;;;;;;;2.20;0.87;;;11.80;66.30;;;;;;5274612;27;20497;-77
2024/04/09 10:55:15;;;;;;;1.10;0.80;;;11.80;66.30;;;;;;5280707;26;20238;-76
2024/04/09 10:57:42;;;;;;;2.23;1.20;;;11.60;66.30;;;;;;5275084;27;20519;-78
2024/04/09 11:00:12;;;;;;;2.03;0.60;;;11.70;66.40;;;;;;5272131;27;20522;-77
2024/04/09 11:02:39;;;;;;;6.20;0.80;;;12.00;66.10;;;;;;5295574;26;20540;-77
2024/04/09 11:05:05;;;;;;;1.27;0.60;;;11.70;66.30;;;;;;5277177;27;20520;-77
2024/04/09 11:07:41;;;;;;;1.30;0.80;;;11.50;66.00;;;;;;5275764;27;21005;-76
2024/04/09 11:10:19;;;;;;;5.83;1.23;;;11.40;66.40;;;;;;5268248;27;20508;-77
2024/04/09 11:12:50;;;;;;;1.47;0.70;;;11.60;66.60;;;;;;5268981;27;20595;-78
2024/04/09 11:15:16;;;;;;;1.40;0.90;;;11.60;66.10;;;;;;5274327;26;20528;-77
2024/04/09 11:17:42;;;;;;;5.63;1.37;;;11.60;66.10;;;;;;5278737;27;20517;-77
2024/04/09 11:20:10;;;;;;;1.13;0.70;;;11.50;65.80;;;;;;5278469;27;20871;-77
2024/04/09 11:22:41;;;;;;;1.20;0.73;;;11.40;66.30;;;;;;5268537;27;20867;-77
2024/04/09 11:25:15;;;;;;;2.10;0.80;;;11.20;66.40;;;;;;5273799;26;20533;-77
2024/04/09 11:27:48;;;;;;;1.20;0.80;;;11.30;66.40;;;;;;5275114;26;20529;-75
2024/04/09 11:30:32;;;;;;;6.43;1.10;;;11.50;66.30;;;;;;5279032;27;20477;-76
2024/04/09 11:32:57;;;;;;;5.80;1.53;;;11.30;66.10;;;;;;5269927;27;20473;-77
2024/04/09 11:35:25;;;;;;;2.37;0.90;;;11.30;66.40;;;;;;5282920;26;20517;-76
2024/04/09 11:37:55;;;;;;;1.90;0.70;;;11.30;66.60;;;;;;5280514;27;20249;-77
2024/04/09 11:40:26;;;;;;;2.50;1.00;;;11.10;66.70;;;;;;5271983;27;20486;-76
2024/04/09 11:42:56;;;;;;;3.07;1.00;;;11.10;67.00;;;;;;5274047;27;20473;-77
2024/04/09 11:45:27;;;;;;;1.97;1.10;;;11.20;67.00;;;;;;5301858;26;20473;-76
2024/04/09 11:47:53;;;;;;;4.20;0.80;;;11.30;66.60;;;;;;5272314;27;20512;-75
2024/04/09 11:50:19;;;;;;;1.63;0.80;;;11.10;66.70;;;;;;5274672;27;20473;-77
2024/04/09 11:52:45;;;;;;;1.77;0.80;;;11.00;67.00;;;;;;5272491;27;20606;-76
2024/04/09 11:55:11;;;;;;;1.70;1.00;;;11.00;67.00;;;;;;5279435;27;20233;-77
2024/04/09 11:57:37;;;;;;;4.73;0.90;;;11.10;67.00;;;;;;5275382;27;20592;-75
2024/04/09 12:00:07;;;;;;;4.50;1.17;;;11.00;67.00;;;;;;5275679;27;20485;-77
2024/04/09 12:02:33;;;;;;;1.93;0.90;;;11.10;67.20;;;;;;5269658;27;20651;-76
2024/04/09 12:04:59;;;;;;;1.30;0.80;;;11.20;66.90;;;;;;5277394;27;20473;-77
2024/04/09 12:07:24;;;;;;;2.60;0.90;;;11.00;67.00;;;;;;5275606;27;20254;-77
2024/04/09 12:09:50;;;;;;;0.80;0.50;;;11.10;67.00;;;;;;5270435;27;20351;-76
2024/04/09 12:12:17;;;;;;;1.73;1.23;;;10.90;66.70;;;;;;5268070;27;20785;-76
2024/04/09 12:14:42;;;;;;;1.43;0.70;;;10.70;67.20;;;;;;5273632;27;20329;-76
2024/04/09 12:17:08;;;;;;;2.40;0.60;;;10.70;67.60;;;;;;5274203;27;21015;-76
2024/04/09 12:19:35;;;;;;;1.33;0.70;;;10.90;67.20;;;;;;5271546;27;20317;-76
2024/04/09 12:22:01;;;;;;;3.97;1.37;;;10.90;66.60;;;;;;5291966;26;20265;-77
2024/04/09 12:24:27;;;;;;;2.90;1.10;;;10.90;66.90;;;;;;5282520;27;20480;-76
2024/04/09 12:26:54;;;;;;;1.83;1.10;;;11.10;66.70;;;;;;5272966;27;20472;-79
2024/04/09 12:29:24;;;;;;;4.00;1.17;;;11.20;66.60;;;;;;5276704;27;20521;-75
2024/04/09 12:31:49;;;;;;;1.50;0.80;;;11.30;66.10;;;;;;5269958;26;20861;-77
2024/04/09 12:34:18;;;;;;;2.27;0.60;;;11.40;65.80;;;;;;5276058;27;21032;-77
2024/04/09 12:36:44;;;;;;;2.60;0.90;;;11.40;65.60;;;;;;5275164;27;20324;-77
2024/04/09 12:39:09;;;;;;;2.53;1.20;;;11.50;65.60;;;;;;5270123;27;20469;-77
2024/04/09 12:41:36;;;;;;;1.67;0.80;;;11.50;65.30;;;;;;5275430;27;20253;-76